sensor_id;sensor_type;location;lat;lon;timestamp;pressure;altitude;pressure_sealevel;temperature;humidity
41898;BME280;27576;53.366;-1.498;2023-03-04T00:00:51;101818.66;;;4.49;100.00
41898;BME280;27576;53.366;-1.498;2023-03-04T00:03:17;101787.44;;;4.28;100.00
41898;BME280;27576;53.366;-1.498;2023-03-04T00:05:42;101797.19;;;4.34;100.00
41898;BME280;27576;53.366;-1.498;2023-03-04T00:08:07;101785.69;;;4.27;100.00
41898;BME280;27576;53.366;-1.498;2023-03-04T00:10:33;101791.81;;;4.29;100.00
41898;BME280;27576;53.366;-1.498;2023-03-04T00:12:58;101804.03;;;4.33;100.00
41898;BME280;27576;53.366;-1.498;2023-03-04T00:15:23;101822.44;;;4.41;100.00
41898;BME280;27576;53.366;-1.498;2023-03-04T00:17:49;101795.94;;;4.27;100.00
41898;BME280;27576;53.366;-1.498;2023-03-04T00:20:14;101808.97;;;4.30;100.00
41898;BME280;27576;53.366;-1.498;2023-03-04T00:22:40;101792.91;;;4.19;100.00
41898;BME280;27576;53.366;-1.498;2023-03-04T00:25:05;101814.09;;;4.30;100.00
41898;BME280;27576;53.366;-1.498;2023-03-04T00:27:31;101815.66;;;4.28;100.00
41898;BME280;27576;53.366;-1.498;2023-03-04T00:29:56;101823.06;;;4.37;100.00
41898;BME280;27576;53.366;-1.498;2023-03-04T00:32:22;101821.25;;;4.36;100.00
41898;BME280;27576;53.366;-1.498;2023-03-04T00:34:47;101829.34;;;4.42;100.00
41898;BME280;27576;53.366;-1.498;2023-03-04T00:37:13;101802.69;;;4.25;100.00
41898;BME280;27576;53.366;-1.498;2023-03-04T00:39:38;101816.75;;;4.32;100.00
41898;BME280;27576;53.366;-1.498;2023-03-04T00:42:04;101834.41;;;4.40;100.00
41898;BME280;27576;53.366;-1.498;2023-03-04T00:44:29;101831.03;;;4.41;100.00
41898;BME280;27576;53.366;-1.498;2023-03-04T00:46:54;101835.28;;;4.41;100.00
41898;BME280;27576;53.366;-1.498;2023-03-04T00:49:20;101811.53;;;4.30;100.00
41898;BME280;27576;53.366;-1.498;2023-03-04T00:51:45;101835.97;;;4.38;100.00
41898;BME280;27576;53.366;-1.498;2023-03-04T00:54:11;101797.28;;;4.21;100.00
41898;BME280;27576;53.366;-1.498;2023-03-04T00:56:36;101790.94;;;4.15;100.00
41898;BME280;27576;53.366;-1.498;2023-03-04T00:59:01;101812.13;;;4.26;100.00
41898;BME280;27576;53.366;-1.498;2023-03-04T01:01:27;101823.81;;;4.36;100.00
41898;BME280;27576;53.366;-1.498;2023-03-04T01:03:52;101832.31;;;4.35;100.00
41898;BME280;27576;53.366;-1.498;2023-03-04T01:06:17;101736.03;;;3.84;100.00
41898;BME280;27576;53.366;-1.498;2023-03-04T01:08:43;101818.41;;;4.31;100.00
41898;BME280;27576;53.366;-1.498;2023-03-04T01:11:08;101809.28;;;4.22;100.00
41898;BME280;27576;53.366;-1.498;2023-03-04T01:13:34;101805.03;;;4.22;100.00
41898;BME280;27576;53.366;-1.498;2023-03-04T01:15:59;101835.78;;;4.35;100.00
41898;BME280;27576;53.366;-1.498;2023-03-04T01:18:25;101810.25;;;4.24;100.00
41898;BME280;27576;53.366;-1.498;2023-03-04T01:20:50;101810.09;;;4.21;100.00
41898;BME280;27576;53.366;-1.498;2023-03-04T01:23:16;101813.63;;;4.23;100.00
41898;BME280;27576;53.366;-1.498;2023-03-04T01:25:41;101820.91;;;4.30;100.00
41898;BME280;27576;53.366;-1.498;2023-03-04T01:28:06;101786.34;;;4.10;100.00
41898;BME280;27576;53.366;-1.498;2023-03-04T01:30:33;101801.47;;;4.20;100.00
41898;BME280;27576;53.366;-1.498;2023-03-04T01:32:58;101783.66;;;4.08;100.00
41898;BME280;27576;53.366;-1.498;2023-03-04T01:35:24;101792.44;;;4.12;100.00
41898;BME280;27576;53.366;-1.498;2023-03-04T01:37:49;101807.63;;;4.22;100.00
41898;BME280;27576;53.366;-1.498;2023-03-04T01:40:14;101814.69;;;4.26;100.00
41898;BME280;27576;53.366;-1.498;2023-03-04T01:42:40;101812.94;;;4.25;100.00
41898;BME280;27576;53.366;-1.498;2023-03-04T01:45:06;101812.81;;;4.24;100.00
41898;BME280;27576;53.366;-1.498;2023-03-04T01:47:32;101789.19;;;4.14;100.00
41898;BME280;27576;53.366;-1.498;2023-03-04T01:50:01;101779.53;;;4.10;100.00
41898;BME280;27576;53.366;-1.498;2023-03-04T01:52:27;101800.59;;;4.19;100.00
41898;BME280;27576;53.366;-1.498;2023-03-04T01:54:53;101770.56;;;4.04;100.00
41898;BME280;27576;53.366;-1.498;2023-03-04T01:57:24;101759.94;;;3.98;100.00
41898;BME280;27576;53.366;-1.498;2023-03-04T02:00:17;101770.69;;;4.05;100.00
41898;BME280;27576;53.366;-1.498;2023-03-04T02:02:44;101789.25;;;4.16;100.00
41898;BME280;27576;53.366;-1.498;2023-03-04T02:05:09;101783.25;;;4.15;100.00
41898;BME280;27576;53.366;-1.498;2023-03-04T02:07:35;101788.50;;;4.17;100.00
41898;BME280;27576;53.366;-1.498;2023-03-04T02:10:02;101764.84;;;4.08;100.00
41898;BME280;27576;53.366;-1.498;2023-03-04T02:12:27;101733.66;;;3.87;100.00
41898;BME280;27576;53.366;-1.498;2023-03-04T02:14:53;101766.31;;;4.04;100.00
41898;BME280;27576;53.366;-1.498;2023-03-04T02:17:26;101756.59;;;3.99;100.00
41898;BME280;27576;53.366;-1.498;2023-03-04T02:20:06;101778.84;;;4.13;100.00
41898;BME280;27576;53.366;-1.498;2023-03-04T02:22:39;101777.78;;;4.09;100.00
41898;BME280;27576;53.366;-1.498;2023-03-04T02:25:10;101783.66;;;4.08;100.00
41898;BME280;27576;53.366;-1.498;2023-03-04T02:27:39;101777.47;;;4.05;100.00
41898;BME280;27576;53.366;-1.498;2023-03-04T02:30:05;101752.47;;;3.87;100.00
41898;BME280;27576;53.366;-1.498;2023-03-04T02:32:30;101750.72;;;3.86;100.00
41898;BME280;27576;53.366;-1.498;2023-03-04T02:34:55;101762.94;;;3.90;100.00
41898;BME280;27576;53.366;-1.498;2023-03-04T02:37:21;101770.81;;;3.93;100.00
41898;BME280;27576;53.366;-1.498;2023-03-04T02:39:47;101784.13;;;4.01;100.00
41898;BME280;27576;53.366;-1.498;2023-03-04T02:42:14;101751.41;;;3.84;100.00
41898;BME280;27576;53.366;-1.498;2023-03-04T02:44:42;101772.50;;;3.93;100.00
41898;BME280;27576;53.366;-1.498;2023-03-04T02:47:11;101785.47;;;3.96;100.00
41898;BME280;27576;53.366;-1.498;2023-03-04T02:49:38;101787.97;;;3.94;100.00
41898;BME280;27576;53.366;-1.498;2023-03-04T02:52:07;101777.50;;;3.91;100.00
41898;BME280;27576;53.366;-1.498;2023-03-04T02:54:33;101782.56;;;3.90;100.00
41898;BME280;27576;53.366;-1.498;2023-03-04T02:57:00;101758.63;;;3.76;100.00
41898;BME280;27576;53.366;-1.498;2023-03-04T02:59:26;101724.78;;;3.54;100.00
41898;BME280;27576;53.366;-1.498;2023-03-04T03:01:52;101783.06;;;3.84;100.00
41898;BME280;27576;53.366;-1.498;2023-03-04T03:04:19;101779.72;;;3.85;100.00
41898;BME280;27576;53.366;-1.498;2023-03-04T03:06:45;101786.41;;;3.83;100.00
41898;BME280;27576;53.366;-1.498;2023-03-04T03:09:11;101789.59;;;3.79;100.00
41898;BME280;27576;53.366;-1.498;2023-03-04T03:11:37;101756.19;;;3.64;100.00
41898;BME280;27576;53.366;-1.498;2023-03-04T03:14:03;101780.91;;;3.77;100.00
41898;BME280;27576;53.366;-1.498;2023-03-04T03:16:29;101758.75;;;3.64;100.00
41898;BME280;27576;53.366;-1.498;2023-03-04T03:18:54;101775.31;;;3.69;100.00
41898;BME280;27576;53.366;-1.498;2023-03-04T03:21:20;101770.28;;;3.71;100.00
41898;BME280;27576;53.366;-1.498;2023-03-04T03:23:45;101774.53;;;3.71;100.00
41898;BME280;27576;53.366;-1.498;2023-03-04T03:26:11;101764.94;;;3.68;100.00
41898;BME280;27576;53.366;-1.498;2023-03-04T03:28:36;101745.28;;;3.54;100.00
41898;BME280;27576;53.366;-1.498;2023-03-04T03:31:02;101751.47;;;3.57;100.00
41898;BME280;27576;53.366;-1.498;2023-03-04T03:33:27;101762.91;;;3.62;100.00
41898;BME280;27576;53.366;-1.498;2023-03-04T03:35:53;101741.03;;;3.54;100.00
41898;BME280;27576;53.366;-1.498;2023-03-04T03:38:18;101757.59;;;3.59;100.00
41898;BME280;27576;53.366;-1.498;2023-03-04T03:40:44;101731.88;;;3.44;100.00
41898;BME280;27576;53.366;-1.498;2023-03-04T03:43:09;101738.00;;;3.47;100.00
41898;BME280;27576;53.366;-1.498;2023-03-04T03:45:34;101738.75;;;3.45;100.00
41898;BME280;27576;53.366;-1.498;2023-03-04T03:48:00;101751.97;;;3.52;100.00
41898;BME280;27576;53.366;-1.498;2023-03-04T03:50:25;101762.50;;;3.56;100.00
41898;BME280;27576;53.366;-1.498;2023-03-04T03:52:50;101725.38;;;3.36;100.00
41898;BME280;27576;53.366;-1.498;2023-03-04T03:55:16;101762.44;;;3.55;100.00
41898;BME280;27576;53.366;-1.498;2023-03-04T03:57:41;101757.19;;;3.53;100.00
41898;BME280;27576;53.366;-1.498;2023-03-04T04:00:07;101736.81;;;3.41;100.00
41898;BME280;27576;53.366;-1.498;2023-03-04T04:02:33;101757.31;;;3.55;100.00
41898;BME280;27576;53.366;-1.498;2023-03-04T04:04:58;101746.44;;;3.45;100.00
41898;BME280;27576;53.366;-1.498;2023-03-04T04:07:24;101737.00;;;3.44;100.00
41898;BME280;27576;53.366;-1.498;2023-03-04T04:09:49;101729.53;;;3.34;100.00
41898;BME280;27576;53.366;-1.498;2023-03-04T04:12:15;101720.78;;;3.31;100.00
41898;BME280;27576;53.366;-1.498;2023-03-04T04:14:41;101728.34;;;3.29;100.00
41898;BME280;27576;53.366;-1.498;2023-03-04T04:17:07;101734.84;;;3.37;100.00
41898;BME280;27576;53.366;-1.498;2023-03-04T04:19:32;101740.97;;;3.39;100.00
41898;BME280;27576;53.366;-1.498;2023-03-04T04:21:58;101740.97;;;3.39;100.00
41898;BME280;27576;53.366;-1.498;2023-03-04T04:24:23;101730.50;;;3.36;100.00
41898;BME280;27576;53.366;-1.498;2023-03-04T04:26:48;101715.16;;;3.23;100.00
41898;BME280;27576;53.366;-1.498;2023-03-04T04:29:14;101715.66;;;3.31;100.00
41898;BME280;27576;53.366;-1.498;2023-03-04T04:31:39;101748.13;;;3.45;100.00
41898;BME280;27576;53.366;-1.498;2023-03-04T04:34:05;101744.47;;;3.41;100.00
41898;BME280;27576;53.366;-1.498;2023-03-04T04:36:30;101726.38;;;3.25;100.00
41898;BME280;27576;53.366;-1.498;2023-03-04T04:38:56;101745.88;;;3.36;100.00
41898;BME280;27576;53.366;-1.498;2023-03-04T04:41:31;101746.09;;;3.39;100.00
41898;BME280;27576;53.366;-1.498;2023-03-04T04:43:58;101747.84;;;3.40;100.00
41898;BME280;27576;53.366;-1.498;2023-03-04T04:46:24;101746.09;;;3.39;100.00
41898;BME280;27576;53.366;-1.498;2023-03-04T04:48:50;101741.56;;;3.35;100.00
41898;BME280;27576;53.366;-1.498;2023-03-04T04:51:15;101746.16;;;3.41;100.00
41898;BME280;27576;53.366;-1.498;2023-03-04T04:53:41;101714.97;;;3.20;100.00
41898;BME280;27576;53.366;-1.498;2023-03-04T04:56:15;101739.00;;;3.35;100.00
41898;BME280;27576;53.366;-1.498;2023-03-04T04:58:43;101741.94;;;3.41;100.00
41898;BME280;27576;53.366;-1.498;2023-03-04T05:01:09;101702.06;;;3.18;100.00
41898;BME280;27576;53.366;-1.498;2023-03-04T05:03:35;101717.81;;;3.25;100.00
41898;BME280;27576;53.366;-1.498;2023-03-04T05:06:02;101737.31;;;3.36;100.00
41898;BME280;27576;53.366;-1.498;2023-03-04T05:08:28;101738.28;;;3.38;100.00
41898;BME280;27576;53.366;-1.498;2023-03-04T05:10:54;101710.72;;;3.20;100.00
41898;BME280;27576;53.366;-1.498;2023-03-04T05:13:19;101706.19;;;3.16;100.00
41898;BME280;27576;53.366;-1.498;2023-03-04T05:15:45;101745.88;;;3.36;100.00
41898;BME280;27576;53.366;-1.498;2023-03-04T05:18:11;101718.69;;;3.25;100.00
41898;BME280;27576;53.366;-1.498;2023-03-04T05:20:36;101750.13;;;3.36;100.00
41898;BME280;27576;53.366;-1.498;2023-03-04T05:23:02;101742.22;;;3.33;100.00
41898;BME280;27576;53.366;-1.498;2023-03-04T05:25:27;101750.03;;;3.34;100.00
41898;BME280;27576;53.366;-1.498;2023-03-04T05:27:53;101746.56;;;3.34;100.00
41898;BME280;27576;53.366;-1.498;2023-03-04T05:30:18;101731.22;;;3.20;100.00
41898;BME280;27576;53.366;-1.498;2023-03-04T05:32:44;101746.56;;;3.34;100.00
41898;BME280;27576;53.366;-1.498;2023-03-04T05:35:09;101746.56;;;3.34;100.00
41898;BME280;27576;53.366;-1.498;2023-03-04T05:37:35;101733.25;;;3.26;100.00
41898;BME280;27576;53.366;-1.498;2023-03-04T05:40:00;101742.16;;;3.31;100.00
41898;BME280;27576;53.366;-1.498;2023-03-04T05:42:25;101751.69;;;3.34;100.00
41898;BME280;27576;53.366;-1.498;2023-03-04T05:44:51;101729.16;;;3.15;100.00
41898;BME280;27576;53.366;-1.498;2023-03-04T05:47:16;101726.59;;;3.15;100.00
41898;BME280;27576;53.366;-1.498;2023-03-04T05:49:41;101753.19;;;3.30;100.00
41898;BME280;27576;53.366;-1.498;2023-03-04T05:52:09;101750.63;;;3.30;100.00
41898;BME280;27576;53.366;-1.498;2023-03-04T05:54:34;101746.41;;;3.31;100.00
41898;BME280;27576;53.366;-1.498;2023-03-04T05:56:59;101714.47;;;3.12;100.00
41898;BME280;27576;53.366;-1.498;2023-03-04T05:59:26;101717.84;;;3.11;100.00
41898;BME280;27576;53.366;-1.498;2023-03-04T06:01:51;101757.59;;;3.33;100.00
41898;BME280;27576;53.366;-1.498;2023-03-04T06:04:17;101737.22;;;3.21;100.00
41898;BME280;27576;53.366;-1.498;2023-03-04T06:06:42;101762.66;;;3.31;100.00
41898;BME280;27576;53.366;-1.498;2023-03-04T06:09:10;101766.88;;;3.31;100.00
41898;BME280;27576;53.366;-1.498;2023-03-04T06:11:36;101739.41;;;3.15;100.00
41898;BME280;27576;53.366;-1.498;2023-03-04T06:14:01;101758.72;;;3.23;100.00
41898;BME280;27576;53.366;-1.498;2023-03-04T06:16:26;101767.56;;;3.28;100.00
41898;BME280;27576;53.366;-1.498;2023-03-04T06:18:52;101761.28;;;3.23;100.00
41898;BME280;27576;53.366;-1.498;2023-03-04T06:21:17;101741.56;;;3.09;100.00
41898;BME280;27576;53.366;-1.498;2023-03-04T06:23:42;101746.97;;;3.13;100.00
41898;BME280;27576;53.366;-1.498;2023-03-04T06:26:09;101775.25;;;3.28;100.00
41898;BME280;27576;53.366;-1.498;2023-03-04T06:28:40;101751.63;;;3.19;100.00
41898;BME280;27576;53.366;-1.498;2023-03-04T06:31:05;101753.59;;;3.23;100.00
41898;BME280;27576;53.366;-1.498;2023-03-04T06:33:30;101723.25;;;3.03;100.00
41898;BME280;27576;53.366;-1.498;2023-03-04T06:35:56;101753.38;;;3.20;100.00
41898;BME280;27576;53.366;-1.498;2023-03-04T06:38:22;101766.69;;;3.28;100.00
41898;BME280;27576;53.366;-1.498;2023-03-04T06:40:47;101745.22;;;3.12;100.00
41898;BME280;27576;53.366;-1.498;2023-03-04T06:43:13;101767.38;;;3.25;100.00
41898;BME280;27576;53.366;-1.498;2023-03-04T06:45:38;101658.34;;;2.62;100.00
41898;BME280;27576;53.366;-1.498;2023-03-04T06:48:04;101745.28;;;3.14;100.00
41898;BME280;27576;53.366;-1.498;2023-03-04T06:50:29;101767.56;;;3.28;100.00
41898;BME280;27576;53.366;-1.498;2023-03-04T06:52:56;101778.63;;;3.27;100.00
41898;BME280;27576;53.366;-1.498;2023-03-04T06:55:21;101781.38;;;3.30;100.00
41898;BME280;27576;53.366;-1.498;2023-03-04T06:57:47;101778.69;;;3.29;100.00
41898;BME280;27576;53.366;-1.498;2023-03-04T07:00:13;101765.41;;;3.21;100.00
41898;BME280;27576;53.366;-1.498;2023-03-04T07:02:38;101760.28;;;3.21;100.00
41898;BME280;27576;53.366;-1.498;2023-03-04T07:05:04;101749.53;;;3.13;100.00
41898;BME280;27576;53.366;-1.498;2023-03-04T07:07:29;101706.31;;;2.91;100.00
41898;BME280;27576;53.366;-1.498;2023-03-04T07:09:56;101751.41;;;3.16;100.00
41898;BME280;27576;53.366;-1.498;2023-03-04T07:12:21;101766.00;;;3.17;100.00
41898;BME280;27576;53.366;-1.498;2023-03-04T07:14:46;101770.53;;;3.21;100.00
41898;BME280;27576;53.366;-1.498;2023-03-04T07:17:12;101787.38;;;3.31;100.00
41898;BME280;27576;53.366;-1.498;2023-03-04T07:19:37;101793.59;;;3.34;100.00
41898;BME280;27576;53.366;-1.498;2023-03-04T07:22:03;101749.44;;;3.12;100.00
41898;BME280;27576;53.366;-1.498;2023-03-04T07:24:28;101783.94;;;3.30;100.00
41898;BME280;27576;53.366;-1.498;2023-03-04T07:26:53;101782.94;;;3.28;100.00
41898;BME280;27576;53.366;-1.498;2023-03-04T07:29:19;101789.06;;;3.30;100.00
41898;BME280;27576;53.366;-1.498;2023-03-04T07:31:44;101800.69;;;3.38;100.00
41898;BME280;27576;53.366;-1.498;2023-03-04T07:34:12;101801.56;;;3.39;100.00
41898;BME280;27576;53.366;-1.498;2023-03-04T07:36:38;101800.84;;;3.41;100.00
41898;BME280;27576;53.366;-1.498;2023-03-04T07:39:04;101802.66;;;3.42;100.00
41898;BME280;27576;53.366;-1.498;2023-03-04T07:41:29;101796.53;;;3.40;100.00
41898;BME280;27576;53.366;-1.498;2023-03-04T07:43:58;101753.19;;;3.17;100.00
41898;BME280;27576;53.366;-1.498;2023-03-04T07:46:24;101804.41;;;3.43;100.00
41898;BME280;27576;53.366;-1.498;2023-03-04T07:48:50;101793.97;;;3.40;100.00
41898;BME280;27576;53.366;-1.498;2023-03-04T07:51:17;101804.63;;;3.47;100.00
41898;BME280;27576;53.366;-1.498;2023-03-04T07:53:45;101797.69;;;3.45;100.00
41898;BME280;27576;53.366;-1.498;2023-03-04T07:56:13;101801.25;;;3.48;100.00
41898;BME280;27576;53.366;-1.498;2023-03-04T07:58:40;101800.25;;;3.45;100.00
41898;BME280;27576;53.366;-1.498;2023-03-04T08:01:17;101809.16;;;3.51;100.00
41898;BME280;27576;53.366;-1.498;2023-03-04T08:03:42;101760.69;;;3.27;100.00
41898;BME280;27576;53.366;-1.498;2023-03-04T08:06:10;101777.63;;;3.38;100.00
41898;BME280;27576;53.366;-1.498;2023-03-04T08:08:36;101800.94;;;3.56;100.00
41898;BME280;27576;53.366;-1.498;2023-03-04T08:11:08;101793.97;;;3.54;100.00
41898;BME280;27576;53.366;-1.498;2023-03-04T08:13:34;101788.84;;;3.54;100.00
41898;BME280;27576;53.366;-1.498;2023-03-04T08:16:00;101800.47;;;3.62;100.00
41898;BME280;27576;53.366;-1.498;2023-03-04T08:18:25;101764.97;;;3.41;100.00
41898;BME280;27576;53.366;-1.498;2023-03-04T08:20:51;101786.38;;;3.55;100.00
41898;BME280;27576;53.366;-1.498;2023-03-04T08:23:17;101771.41;;;3.48;100.00
41898;BME280;27576;53.366;-1.498;2023-03-04T08:25:42;101784.88;;;3.59;100.00
41898;BME280;27576;53.366;-1.498;2023-03-04T08:28:08;101793.84;;;3.65;100.00
41898;BME280;27576;53.366;-1.498;2023-03-04T08:30:35;101796.88;;;3.73;100.00
41898;BME280;27576;53.366;-1.498;2023-03-04T08:33:02;101769.00;;;3.64;100.00
41898;BME280;27576;53.366;-1.498;2023-03-04T08:35:28;101800.63;;;3.78;100.00
41898;BME280;27576;53.366;-1.498;2023-03-04T08:37:53;101792.94;;;3.78;100.00
41898;BME280;27576;53.366;-1.498;2023-03-04T08:40:18;101787.69;;;3.77;100.00
41898;BME280;27576;53.366;-1.498;2023-03-04T08:42:44;101805.44;;;3.87;100.00
41898;BME280;27576;53.366;-1.498;2023-03-04T08:45:10;101797.94;;;3.90;100.00
41898;BME280;27576;53.366;-1.498;2023-03-04T08:47:35;101799.03;;;3.93;100.00
41898;BME280;27576;53.366;-1.498;2023-03-04T08:50:01;101805.03;;;3.94;100.00
41898;BME280;27576;53.366;-1.498;2023-03-04T08:52:28;101801.69;;;3.95;100.00
41898;BME280;27576;53.366;-1.498;2023-03-04T08:54:54;101782.28;;;3.85;100.00
41898;BME280;27576;53.366;-1.498;2023-03-04T08:57:20;101806.81;;;3.95;100.00
41898;BME280;27576;53.366;-1.498;2023-03-04T08:59:45;101808.69;;;3.98;100.00
41898;BME280;27576;53.366;-1.498;2023-03-04T09:02:10;101801.75;;;3.97;100.00
41898;BME280;27576;53.366;-1.498;2023-03-04T09:04:36;101768.38;;;3.82;100.00
41898;BME280;27576;53.366;-1.498;2023-03-04T09:07:02;101772.38;;;3.91;100.00
41898;BME280;27576;53.366;-1.498;2023-03-04T09:09:27;101795.53;;;4.06;100.00
41898;BME280;27576;53.366;-1.498;2023-03-04T09:11:52;101768.41;;;3.97;100.00
41898;BME280;27576;53.366;-1.498;2023-03-04T09:14:18;101772.16;;;4.02;100.00
41898;BME280;27576;53.366;-1.498;2023-03-04T09:16:44;101800.72;;;4.21;100.00
41898;BME280;27576;53.366;-1.498;2023-03-04T09:19:09;101802.84;;;4.28;100.00
41898;BME280;27576;53.366;-1.498;2023-03-04T09:21:34;101759.50;;;4.05;100.00
41898;BME280;27576;53.366;-1.498;2023-03-04T09:24:00;101783.72;;;4.23;100.00
41898;BME280;27576;53.366;-1.498;2023-03-04T09:26:27;101808.72;;;4.40;100.00
41898;BME280;27576;53.366;-1.498;2023-03-04T09:28:55;101780.34;;;4.24;99.56
41898;BME280;27576;53.366;-1.498;2023-03-04T09:31:21;101791.88;;;4.31;100.00
41898;BME280;27576;53.366;-1.498;2023-03-04T09:33:47;101737.75;;;3.98;100.00
41898;BME280;27576;53.366;-1.498;2023-03-04T09:36:13;101787.81;;;4.34;99.77
41898;BME280;27576;53.366;-1.498;2023-03-04T09:38:39;101796.53;;;4.51;99.55
41898;BME280;27576;53.366;-1.498;2023-03-04T09:41:16;101816.28;;;4.52;97.15
41898;BME280;27576;53.366;-1.498;2023-03-04T09:43:43;101806.78;;;4.51;96.53
41898;BME280;27576;53.366;-1.498;2023-03-04T09:46:13;101788.97;;;4.39;97.81
41898;BME280;27576;53.366;-1.498;2023-03-04T09:48:51;101805.22;;;4.53;98.18
41898;BME280;27576;53.366;-1.498;2023-03-04T09:54:01;101791.75;;;4.57;98.06
41898;BME280;27576;53.366;-1.498;2023-03-04T09:56:36;101800.88;;;4.67;97.75
41898;BME280;27576;53.366;-1.498;2023-03-04T10:01:51;101806.47;;;4.75;98.17
41898;BME280;27576;53.366;-1.498;2023-03-04T10:06:49;101792.31;;;4.81;97.61
41898;BME280;27576;53.366;-1.498;2023-03-04T10:09:49;101796.81;;;4.85;96.36
41898;BME280;27576;53.366;-1.498;2023-03-04T10:12:19;101797.09;;;4.90;97.01
41898;BME280;27576;53.366;-1.498;2023-03-04T10:14:53;101787.81;;;4.92;97.07
41898;BME280;27576;53.366;-1.498;2023-03-04T10:17:40;101762.38;;;4.82;95.81
41898;BME280;27576;53.366;-1.498;2023-03-04T10:20:25;101788.25;;;5.00;95.79
41898;BME280;27576;53.366;-1.498;2023-03-04T10:22:55;101781.50;;;5.02;94.25
41898;BME280;27576;53.366;-1.498;2023-03-04T10:25:29;101783.09;;;5.00;94.37
41898;BME280;27576;53.366;-1.498;2023-03-04T10:28:05;101795.16;;;5.01;93.23
41898;BME280;27576;53.366;-1.498;2023-03-04T10:31:01;101797.47;;;4.96;89.50
41898;BME280;27576;53.366;-1.498;2023-03-04T10:33:32;101771.50;;;4.77;92.20
41898;BME280;27576;53.366;-1.498;2023-03-04T10:38:24;101759.28;;;4.73;93.65
41898;BME280;27576;53.366;-1.498;2023-03-04T10:40:49;101752.47;;;4.73;94.20
41898;BME280;27576;53.366;-1.498;2023-03-04T10:43:17;101780.25;;;4.95;93.28
41898;BME280;27576;53.366;-1.498;2023-03-04T10:45:44;101773.53;;;4.97;94.19
41898;BME280;27576;53.366;-1.498;2023-03-04T10:48:27;101789.56;;;5.08;91.77
41898;BME280;27576;53.366;-1.498;2023-03-04T10:50:53;101782.38;;;5.02;89.79
41898;BME280;27576;53.366;-1.498;2023-03-04T10:53:39;101788.25;;;5.00;90.94
41898;BME280;27576;53.366;-1.498;2023-03-04T10:56:37;101786.19;;;4.94;90.05
41898;BME280;27576;53.366;-1.498;2023-03-04T11:02:18;101788.75;;;4.94;91.10
41898;BME280;27576;53.366;-1.498;2023-03-04T11:04:53;101788.94;;;4.97;91.37
41898;BME280;27576;53.366;-1.498;2023-03-04T11:07:24;101786.38;;;4.97;89.91
41898;BME280;27576;53.366;-1.498;2023-03-04T11:09:49;101745.72;;;4.75;89.93
41898;BME280;27576;53.366;-1.498;2023-03-04T11:12:18;101775.28;;;4.98;89.17
41898;BME280;27576;53.366;-1.498;2023-03-04T11:14:49;101775.47;;;5.01;88.42
41898;BME280;27576;53.366;-1.498;2023-03-04T11:20:00;101768.00;;;5.21;91.31
41898;BME280;27576;53.366;-1.498;2023-03-04T11:22:30;101739.81;;;5.22;89.27
41898;BME280;27576;53.366;-1.498;2023-03-04T11:25:04;101754.56;;;5.41;89.07
41898;BME280;27576;53.366;-1.498;2023-03-04T11:27:39;101745.28;;;5.43;87.10
41898;BME280;27576;53.366;-1.498;2023-03-04T11:32:55;101737.44;;;5.56;89.00
41898;BME280;27576;53.366;-1.498;2023-03-04T11:35:28;101748.72;;;5.75;88.09
41898;BME280;27576;53.366;-1.498;2023-03-04T11:38:16;101742.34;;;5.84;85.78
41898;BME280;27576;53.366;-1.498;2023-03-04T11:40:53;101738.72;;;5.96;88.45
41898;BME280;27576;53.366;-1.498;2023-03-04T11:43:25;101724.38;;;6.01;87.45
41898;BME280;27576;53.366;-1.498;2023-03-04T11:54:10;101710.94;;;6.23;83.08
41898;BME280;27576;53.366;-1.498;2023-03-04T11:57:24;101713.84;;;6.29;85.28
41898;BME280;27576;53.366;-1.498;2023-03-04T12:05:25;101688.56;;;6.38;81.51
41898;BME280;27576;53.366;-1.498;2023-03-04T12:08:10;101697.22;;;6.56;83.97
41898;BME280;27576;53.366;-1.498;2023-03-04T12:10:46;101699.50;;;6.68;84.54
41898;BME280;27576;53.366;-1.498;2023-03-04T12:13:36;101696.41;;;6.75;81.94
41898;BME280;27576;53.366;-1.498;2023-03-04T12:29:58;101690.91;;;6.85;78.42
41898;BME280;27576;53.366;-1.498;2023-03-04T12:32:44;101658.38;;;6.70;77.43
41898;BME280;27576;53.366;-1.498;2023-03-04T12:49:08;101645.94;;;7.53;73.36
41898;BME280;27576;53.366;-1.498;2023-03-04T12:54:31;101652.31;;;8.00;72.26
41898;BME280;27576;53.366;-1.498;2023-03-04T12:57:11;101645.97;;;8.13;72.03
41898;BME280;27576;53.366;-1.498;2023-03-04T13:05:14;101630.84;;;8.63;71.57
41898;BME280;27576;53.366;-1.498;2023-03-04T13:10:32;101629.41;;;8.69;71.10
41898;BME280;27576;53.366;-1.498;2023-03-04T13:12:59;101629.97;;;8.62;70.54
41898;BME280;27576;53.366;-1.498;2023-03-04T13:17:58;101602.63;;;8.25;68.80
41898;BME280;27576;53.366;-1.498;2023-03-04T13:25:48;101591.88;;;8.16;69.64
41898;BME280;27576;53.366;-1.498;2023-03-04T13:43:40;101596.03;;;7.92;70.91
41898;BME280;27576;53.366;-1.498;2023-03-04T14:04:21;101586.22;;;7.44;68.74
41898;BME280;27576;53.366;-1.498;2023-03-04T14:06:51;101591.25;;;7.41;71.99
41898;BME280;27576;53.366;-1.498;2023-03-04T14:11:58;101582.28;;;7.33;71.86
41898;BME280;27576;53.366;-1.498;2023-03-04T14:14:51;101558.69;;;7.24;72.14
41898;BME280;27576;53.366;-1.498;2023-03-04T14:17:37;101573.66;;;7.32;72.82
41898;BME280;27576;53.366;-1.498;2023-03-04T14:20:06;101541.31;;;7.20;73.43
41898;BME280;27576;53.366;-1.498;2023-03-04T14:22:45;101531.72;;;7.17;72.56
41898;BME280;27576;53.366;-1.498;2023-03-04T14:27:39;101560.16;;;7.19;70.57
41898;BME280;27576;53.366;-1.498;2023-03-04T14:30:07;101544.28;;;7.09;70.68
41898;BME280;27576;53.366;-1.498;2023-03-04T14:32:43;101521.69;;;6.84;71.93
41898;BME280;27576;53.366;-1.498;2023-03-04T14:35:22;101543.00;;;7.00;72.03
41898;BME280;27576;53.366;-1.498;2023-03-04T14:40:26;101523.03;;;6.76;71.08
41898;BME280;27576;53.366;-1.498;2023-03-04T14:42:56;101532.09;;;6.87;73.53
41898;BME280;27576;53.366;-1.498;2023-03-04T14:45:23;101514.69;;;6.82;72.09
41898;BME280;27576;53.366;-1.498;2023-03-04T14:47:51;101534.09;;;6.93;73.01